sensor_id;sensor_type;location;lat;lon;timestamp;pressure;altitude;pressure_sealevel;temperature;humidity
20077;BME280;12348;42.710;23.378;2023-07-29T00:01:03;94997.16;;;17.48;100.00
20077;BME280;12348;42.710;23.378;2023-07-29T00:03:30;95001.78;;;17.47;100.00
20077;BME280;12348;42.710;23.378;2023-07-29T00:05:57;95002.28;;;17.49;100.00
20077;BME280;12348;42.710;23.378;2023-07-29T00:08:25;95003.16;;;17.41;100.00
20077;BME280;12348;42.710;23.378;2023-07-29T00:10:52;94996.56;;;17.42;100.00
20077;BME280;12348;42.710;23.378;2023-07-29T00:13:19;95000.50;;;17.32;100.00
20077;BME280;12348;42.710;23.378;2023-07-29T00:15:45;95007.56;;;17.33;100.00
20077;BME280;12348;42.710;23.378;2023-07-29T00:18:12;95011.75;;;17.31;100.00
20077;BME280;12348;42.710;23.378;2023-07-29T00:20:39;95006.66;;;17.29;100.00
20077;BME280;12348;42.710;23.378;2023-07-29T00:23:06;95006.91;;;17.15;100.00
20077;BME280;12348;42.710;23.378;2023-07-29T00:25:34;95005.59;;;17.22;100.00
20077;BME280;12348;42.710;23.378;2023-07-29T00:28:01;95002.94;;;17.13;100.00
20077;BME280;12348;42.710;23.378;2023-07-29T00:30:28;95000.09;;;17.09;100.00
20077;BME280;12348;42.710;23.378;2023-07-29T00:32:55;94994.66;;;17.09;100.00
20077;BME280;12348;42.710;23.378;2023-07-29T00:35:22;94995.31;;;17.06;100.00
20077;BME280;12348;42.710;23.378;2023-07-29T00:37:48;94989.81;;;17.15;100.00
20077;BME280;12348;42.710;23.378;2023-07-29T00:40:19;94986.59;;;17.13;100.00
20077;BME280;12348;42.710;23.378;2023-07-29T00:42:49;94982.53;;;17.07;100.00
20077;BME280;12348;42.710;23.378;2023-07-29T00:45:16;94982.66;;;17.10;100.00
20077;BME280;12348;42.710;23.378;2023-07-29T00:47:43;94992.16;;;17.04;100.00
20077;BME280;12348;42.710;23.378;2023-07-29T00:50:11;94990.09;;;17.01;100.00
20077;BME280;12348;42.710;23.378;2023-07-29T00:52:38;94992.88;;;16.92;100.00
20077;BME280;12348;42.710;23.378;2023-07-29T00:55:06;94982.00;;;16.92;100.00
20077;BME280;12348;42.710;23.378;2023-07-29T00:57:35;94987.63;;;16.87;100.00
20077;BME280;12348;42.710;23.378;2023-07-29T01:00:04;94993.59;;;17.02;100.00
20077;BME280;12348;42.710;23.378;2023-07-29T01:02:31;94991.00;;;17.05;100.00
20077;BME280;12348;42.710;23.378;2023-07-29T01:04:58;94988.03;;;16.98;100.00
20077;BME280;12348;42.710;23.378;2023-07-29T01:07:31;94989.50;;;16.95;100.00
20077;BME280;12348;42.710;23.378;2023-07-29T01:10:02;94980.25;;;16.88;100.00
20077;BME280;12348;42.710;23.378;2023-07-29T01:12:36;94981.09;;;16.88;100.00
20077;BME280;12348;42.710;23.378;2023-07-29T01:15:14;94982.88;;;16.84;100.00
20077;BME280;12348;42.710;23.378;2023-07-29T01:17:46;94989.56;;;16.87;100.00
20077;BME280;12348;42.710;23.378;2023-07-29T01:20:15;94983.81;;;16.88;100.00
20077;BME280;12348;42.710;23.378;2023-07-29T01:22:43;94992.50;;;16.82;100.00
20077;BME280;12348;42.710;23.378;2023-07-29T01:25:12;94989.56;;;16.87;100.00
20077;BME280;12348;42.710;23.378;2023-07-29T01:27:39;94995.00;;;16.87;100.00
20077;BME280;12348;42.710;23.378;2023-07-29T01:30:06;94988.38;;;16.76;100.00
20077;BME280;12348;42.710;23.378;2023-07-29T01:32:38;94985.34;;;16.77;100.00
20077;BME280;12348;42.710;23.378;2023-07-29T01:35:13;94990.78;;;16.77;100.00
20077;BME280;12348;42.710;23.378;2023-07-29T01:37:42;94981.06;;;16.67;100.00
20077;BME280;12348;42.710;23.378;2023-07-29T01:40:12;94981.84;;;16.68;100.00
20077;BME280;12348;42.710;23.378;2023-07-29T01:42:40;94980.56;;;16.65;100.00
20077;BME280;12348;42.710;23.378;2023-07-29T01:45:08;94977.63;;;16.58;100.00
20077;BME280;12348;42.710;23.378;2023-07-29T01:47:36;94983.56;;;16.52;100.00
20077;BME280;12348;42.710;23.378;2023-07-29T01:50:07;94983.22;;;16.53;100.00
20077;BME280;12348;42.710;23.378;2023-07-29T01:52:33;94978.28;;;16.55;100.00
20077;BME280;12348;42.710;23.378;2023-07-29T01:55:00;94985.50;;;16.51;100.00
20077;BME280;12348;42.710;23.378;2023-07-29T01:57:29;94982.44;;;16.53;100.00
20077;BME280;12348;42.710;23.378;2023-07-29T01:59:55;94985.44;;;16.60;100.00
20077;BME280;12348;42.710;23.378;2023-07-29T02:02:22;94996.38;;;16.51;100.00
20077;BME280;12348;42.710;23.378;2023-07-29T02:04:49;94986.75;;;16.54;100.00
20077;BME280;12348;42.710;23.378;2023-07-29T02:07:17;94988.22;;;16.51;100.00
20077;BME280;12348;42.710;23.378;2023-07-29T02:09:44;94986.16;;;16.48;100.00
20077;BME280;12348;42.710;23.378;2023-07-29T02:12:11;94989.19;;;16.46;100.00
20077;BME280;12348;42.710;23.378;2023-07-29T02:14:40;94986.94;;;16.48;100.00
20077;BME280;12348;42.710;23.378;2023-07-29T02:17:07;94983.94;;;16.41;100.00
20077;BME280;12348;42.710;23.378;2023-07-29T02:19:34;94991.03;;;16.34;100.00
20077;BME280;12348;42.710;23.378;2023-07-29T02:22:01;94999.69;;;16.36;100.00
20077;BME280;12348;42.710;23.378;2023-07-29T02:24:27;94995.47;;;16.38;100.00
20077;BME280;12348;42.710;23.378;2023-07-29T02:26:54;94994.09;;;16.32;100.00
20077;BME280;12348;42.710;23.378;2023-07-29T02:29:21;94991.25;;;16.29;100.00
20077;BME280;12348;42.710;23.378;2023-07-29T02:31:49;94990.03;;;16.17;100.00
20077;BME280;12348;42.710;23.378;2023-07-29T02:34:16;94992.69;;;16.26;100.00
20077;BME280;12348;42.710;23.378;2023-07-29T02:36:43;94996.69;;;16.29;100.00
20077;BME280;12348;42.710;23.378;2023-07-29T02:39:11;94989.97;;;16.26;100.00
20077;BME280;12348;42.710;23.378;2023-07-29T02:41:37;94989.63;;;16.28;100.00
20077;BME280;12348;42.710;23.378;2023-07-29T02:44:05;94994.97;;;16.15;100.00
20077;BME280;12348;42.710;23.378;2023-07-29T02:46:32;94997.69;;;16.15;100.00
20077;BME280;12348;42.710;23.378;2023-07-29T02:49:01;94991.03;;;16.04;100.00
20077;BME280;12348;42.710;23.378;2023-07-29T02:51:28;95002.78;;;15.87;100.00
20077;BME280;12348;42.710;23.378;2023-07-29T02:53:55;94998.03;;;15.75;100.00
20077;BME280;12348;42.710;23.378;2023-07-29T02:56:22;95001.03;;;15.83;100.00
20077;BME280;12348;42.710;23.378;2023-07-29T02:58:49;94997.72;;;15.77;100.00
20077;BME280;12348;42.710;23.378;2023-07-29T03:01:17;95004.75;;;15.78;100.00
20077;BME280;12348;42.710;23.378;2023-07-29T03:03:44;95002.66;;;15.75;100.00
20077;BME280;12348;42.710;23.378;2023-07-29T03:06:13;95014.06;;;15.68;100.00
20077;BME280;12348;42.710;23.378;2023-07-29T03:08:40;95014.00;;;15.77;100.00
20077;BME280;12348;42.710;23.378;2023-07-29T03:11:08;95009.03;;;15.79;100.00
20077;BME280;12348;42.710;23.378;2023-07-29T03:13:35;95015.63;;;15.69;100.00
20077;BME280;12348;42.710;23.378;2023-07-29T03:16:06;95018.31;;;15.61;100.00
20077;BME280;12348;42.710;23.378;2023-07-29T03:18:32;95025.22;;;15.58;100.00
20077;BME280;12348;42.710;23.378;2023-07-29T03:20:59;95023.94;;;15.56;100.00
20077;BME280;12348;42.710;23.378;2023-07-29T03:23:28;95016.75;;;15.60;100.00
20077;BME280;12348;42.710;23.378;2023-07-29T03:25:56;95015.63;;;15.69;100.00
20077;BME280;12348;42.710;23.378;2023-07-29T03:28:24;95015.44;;;15.74;100.00
20077;BME280;12348;42.710;23.378;2023-07-29T03:30:51;95021.78;;;16.55;100.00
20077;BME280;12348;42.710;23.378;2023-07-29T03:33:18;95025.19;;;17.15;100.00
20077;BME280;12348;42.710;23.378;2023-07-29T03:35:45;95020.53;;;17.82;100.00
20077;BME280;12348;42.710;23.378;2023-07-29T03:38:12;95018.38;;;18.61;100.00
20077;BME280;12348;42.710;23.378;2023-07-29T03:40:41;95022.25;;;19.12;100.00
20077;BME280;12348;42.710;23.378;2023-07-29T03:43:08;95022.34;;;19.44;100.00
20077;BME280;12348;42.710;23.378;2023-07-29T03:45:35;95023.59;;;20.22;98.28
20077;BME280;12348;42.710;23.378;2023-07-29T03:48:03;95014.69;;;20.41;94.48
20077;BME280;12348;42.710;23.378;2023-07-29T03:50:30;95020.59;;;20.43;93.00
20077;BME280;12348;42.710;23.378;2023-07-29T03:52:57;95023.09;;;21.38;87.38
20077;BME280;12348;42.710;23.378;2023-07-29T03:55:24;95018.81;;;21.60;83.29
20077;BME280;12348;42.710;23.378;2023-07-29T03:57:52;95019.75;;;21.91;81.99
20077;BME280;12348;42.710;23.378;2023-07-29T04:00:19;95016.72;;;22.42;79.16
20077;BME280;12348;42.710;23.378;2023-07-29T04:02:46;95012.09;;;22.99;75.75
20077;BME280;12348;42.710;23.378;2023-07-29T04:05:12;95007.50;;;23.07;74.29
20077;BME280;12348;42.710;23.378;2023-07-29T04:07:40;95008.13;;;22.96;74.70
20077;BME280;12348;42.710;23.378;2023-07-29T04:10:07;95017.59;;;23.63;72.13
20077;BME280;12348;42.710;23.378;2023-07-29T04:12:34;95015.47;;;24.27;69.36
20077;BME280;12348;42.710;23.378;2023-07-29T04:15:03;95024.69;;;25.01;65.96
20077;BME280;12348;42.710;23.378;2023-07-29T04:17:30;95020.78;;;25.09;65.35
20077;BME280;12348;42.710;23.378;2023-07-29T04:19:56;95031.06;;;25.96;63.69
20077;BME280;12348;42.710;23.378;2023-07-29T04:22:23;95027.34;;;25.52;62.38
20077;BME280;12348;42.710;23.378;2023-07-29T04:24:50;95024.38;;;26.22;60.89
20077;BME280;12348;42.710;23.378;2023-07-29T04:27:16;95021.50;;;27.40;57.55
20077;BME280;12348;42.710;23.378;2023-07-29T04:29:43;95028.63;;;27.34;56.05
20077;BME280;12348;42.710;23.378;2023-07-29T04:32:11;95022.56;;;28.41;53.65
20077;BME280;12348;42.710;23.378;2023-07-29T04:34:38;95018.91;;;29.03;51.13
20077;BME280;12348;42.710;23.378;2023-07-29T04:37:05;95023.97;;;29.80;49.74
20077;BME280;12348;42.710;23.378;2023-07-29T04:39:32;95022.81;;;29.78;48.06
20077;BME280;12348;42.710;23.378;2023-07-29T04:41:59;95023.19;;;30.10;48.01
20077;BME280;12348;42.710;23.378;2023-07-29T04:44:26;95025.34;;;28.89;49.76
20077;BME280;12348;42.710;23.378;2023-07-29T04:46:53;95023.34;;;29.69;49.78
20077;BME280;12348;42.710;23.378;2023-07-29T04:49:21;95022.25;;;29.59;47.89
20077;BME280;12348;42.710;23.378;2023-07-29T04:51:48;95026.00;;;29.76;48.68
20077;BME280;12348;42.710;23.378;2023-07-29T04:54:14;95036.44;;;29.99;47.76
20077;BME280;12348;42.710;23.378;2023-07-29T04:56:41;95033.91;;;30.62;46.08
20077;BME280;12348;42.710;23.378;2023-07-29T04:59:09;95039.06;;;29.07;49.26
20077;BME280;12348;42.710;23.378;2023-07-29T05:01:38;95044.56;;;31.14;45.03
20077;BME280;12348;42.710;23.378;2023-07-29T05:04:05;95045.41;;;31.55;43.07
20077;BME280;12348;42.710;23.378;2023-07-29T05:06:33;95047.84;;;31.09;43.90
20077;BME280;12348;42.710;23.378;2023-07-29T05:09:12;95049.59;;;32.75;40.86
20077;BME280;12348;42.710;23.378;2023-07-29T05:11:39;95046.59;;;32.82;39.91
20077;BME280;12348;42.710;23.378;2023-07-29T05:14:06;95043.22;;;33.08;39.75
20077;BME280;12348;42.710;23.378;2023-07-29T05:16:34;95041.31;;;34.34;37.70
20077;BME280;12348;42.710;23.378;2023-07-29T05:19:03;95040.88;;;32.57;39.69
20077;BME280;12348;42.710;23.378;2023-07-29T05:21:30;95048.09;;;34.07;36.51
20077;BME280;12348;42.710;23.378;2023-07-29T05:23:58;95052.84;;;35.00;35.81
20077;BME280;12348;42.710;23.378;2023-07-29T05:26:25;95045.69;;;34.47;36.15
20077;BME280;12348;42.710;23.378;2023-07-29T05:28:52;95053.94;;;34.25;36.00
20077;BME280;12348;42.710;23.378;2023-07-29T05:31:19;95051.66;;;32.19;39.41
20077;BME280;12348;42.710;23.378;2023-07-29T05:33:45;95051.72;;;33.33;37.81
20077;BME280;12348;42.710;23.378;2023-07-29T05:36:13;95054.94;;;33.48;37.69
20077;BME280;12348;42.710;23.378;2023-07-29T05:38:40;95063.31;;;34.19;36.99
20077;BME280;12348;42.710;23.378;2023-07-29T05:41:09;95058.00;;;34.50;36.45
20077;BME280;12348;42.710;23.378;2023-07-29T05:43:37;95063.16;;;35.37;35.36
20077;BME280;12348;42.710;23.378;2023-07-29T05:46:04;95054.22;;;36.71;33.41
20077;BME280;12348;42.710;23.378;2023-07-29T05:48:30;95064.00;;;36.04;34.11
20077;BME280;12348;42.710;23.378;2023-07-29T05:50:58;95073.63;;;35.59;34.49
20077;BME280;12348;42.710;23.378;2023-07-29T05:53:25;95057.44;;;33.42;37.62
20077;BME280;12348;42.710;23.378;2023-07-29T05:55:53;95059.09;;;35.73;35.21
20077;BME280;12348;42.710;23.378;2023-07-29T05:58:21;95062.38;;;37.46;32.54
20077;BME280;12348;42.710;23.378;2023-07-29T06:00:48;95054.75;;;38.95;29.61
20077;BME280;12348;42.710;23.378;2023-07-29T06:03:14;95059.97;;;36.05;32.95
20077;BME280;12348;42.710;23.378;2023-07-29T06:05:41;95062.53;;;39.00;30.30
20077;BME280;12348;42.710;23.378;2023-07-29T06:08:09;95061.50;;;39.99;28.82
20077;BME280;12348;42.710;23.378;2023-07-29T06:10:35;95051.69;;;39.56;28.51
20077;BME280;12348;42.710;23.378;2023-07-29T06:13:02;95055.53;;;38.02;29.52
20077;BME280;12348;42.710;23.378;2023-07-29T06:15:30;95054.88;;;37.98;30.11
20077;BME280;12348;42.710;23.378;2023-07-29T06:17:57;95061.59;;;37.82;29.93
20077;BME280;12348;42.710;23.378;2023-07-29T06:20:24;95059.19;;;37.07;31.13
20077;BME280;12348;42.710;23.378;2023-07-29T06:22:51;95054.91;;;37.61;30.37
20077;BME280;12348;42.710;23.378;2023-07-29T06:25:18;95045.88;;;38.78;29.39
20077;BME280;12348;42.710;23.378;2023-07-29T06:27:44;95048.56;;;38.82;28.88
20077;BME280;12348;42.710;23.378;2023-07-29T06:30:11;95051.41;;;38.12;29.50
20077;BME280;12348;42.710;23.378;2023-07-29T06:32:39;95052.13;;;35.56;32.43
20077;BME280;12348;42.710;23.378;2023-07-29T06:35:07;95037.16;;;36.47;31.76
20077;BME280;12348;42.710;23.378;2023-07-29T06:37:33;95042.69;;;35.28;33.72
20077;BME280;12348;42.710;23.378;2023-07-29T06:40:00;95035.53;;;37.54;30.78
20077;BME280;12348;42.710;23.378;2023-07-29T06:42:27;95037.38;;;37.75;30.43
20077;BME280;12348;42.710;23.378;2023-07-29T06:44:53;95024.06;;;38.22;30.10
20077;BME280;12348;42.710;23.378;2023-07-29T06:47:20;95028.81;;;39.15;29.11
20077;BME280;12348;42.710;23.378;2023-07-29T06:49:48;95029.34;;;38.71;29.22
20077;BME280;12348;42.710;23.378;2023-07-29T06:52:15;95023.50;;;37.90;29.42
20077;BME280;12348;42.710;23.378;2023-07-29T06:54:42;95020.50;;;34.22;34.08
20077;BME280;12348;42.710;23.378;2023-07-29T06:57:08;95021.94;;;35.25;33.45
20077;BME280;12348;42.710;23.378;2023-07-29T06:59:35;95017.88;;;37.63;30.58
20077;BME280;12348;42.710;23.378;2023-07-29T07:02:03;95020.22;;;37.36;30.88
20077;BME280;12348;42.710;23.378;2023-07-29T07:04:29;95024.94;;;36.81;31.69
20077;BME280;12348;42.710;23.378;2023-07-29T07:06:59;95026.63;;;36.78;30.86
20077;BME280;12348;42.710;23.378;2023-07-29T07:09:26;95030.38;;;35.60;31.70
20077;BME280;12348;42.710;23.378;2023-07-29T07:11:53;95031.13;;;36.57;31.07
20077;BME280;12348;42.710;23.378;2023-07-29T07:14:19;95028.63;;;37.18;30.31
20077;BME280;12348;42.710;23.378;2023-07-29T07:16:46;95028.34;;;37.71;30.04
20077;BME280;12348;42.710;23.378;2023-07-29T07:19:13;95032.84;;;35.58;32.32
20077;BME280;12348;42.710;23.378;2023-07-29T07:21:39;95023.38;;;36.39;31.82
20077;BME280;12348;42.710;23.378;2023-07-29T07:24:09;95021.44;;;37.26;30.96
20077;BME280;12348;42.710;23.378;2023-07-29T07:26:36;95021.47;;;37.45;30.01
20077;BME280;12348;42.710;23.378;2023-07-29T07:29:03;95022.25;;;36.68;30.88
20077;BME280;12348;42.710;23.378;2023-07-29T07:31:33;95018.53;;;37.57;29.98
20077;BME280;12348;42.710;23.378;2023-07-29T07:34:00;95009.59;;;36.63;30.78
20077;BME280;12348;42.710;23.378;2023-07-29T07:36:28;95017.09;;;37.16;30.56
20077;BME280;12348;42.710;23.378;2023-07-29T07:38:55;95012.28;;;38.32;29.37
20077;BME280;12348;42.710;23.378;2023-07-29T07:41:25;95012.22;;;35.74;31.78
20077;BME280;12348;42.710;23.378;2023-07-29T07:43:52;95005.50;;;34.16;34.36
20077;BME280;12348;42.710;23.378;2023-07-29T07:46:18;95002.94;;;35.20;34.10
20077;BME280;12348;42.710;23.378;2023-07-29T07:48:45;95004.91;;;37.93;30.00
20077;BME280;12348;42.710;23.378;2023-07-29T07:51:13;95012.31;;;39.23;29.34
20077;BME280;12348;42.710;23.378;2023-07-29T07:53:40;95008.34;;;37.14;31.27
20077;BME280;12348;42.710;23.378;2023-07-29T07:56:07;95015.66;;;37.85;30.76
20077;BME280;12348;42.710;23.378;2023-07-29T07:58:35;95012.41;;;37.96;31.02
20077;BME280;12348;42.710;23.378;2023-07-29T08:01:03;95013.94;;;39.78;28.37
20077;BME280;12348;42.710;23.378;2023-07-29T08:03:29;95020.66;;;40.39;27.42
20077;BME280;12348;42.710;23.378;2023-07-29T08:05:58;95019.94;;;39.32;28.27
20077;BME280;12348;42.710;23.378;2023-07-29T08:08:25;95013.19;;;40.21;27.18
20077;BME280;12348;42.710;23.378;2023-07-29T08:10:52;95005.56;;;41.28;26.20
20077;BME280;12348;42.710;23.378;2023-07-29T08:13:20;95011.38;;;41.85;24.80
20077;BME280;12348;42.710;23.378;2023-07-29T08:15:51;95014.63;;;35.40;31.45
20077;BME280;12348;42.710;23.378;2023-07-29T08:18:18;95005.66;;;35.11;33.54
20077;BME280;12348;42.710;23.378;2023-07-29T08:20:52;95015.47;;;36.16;31.52
20077;BME280;12348;42.710;23.378;2023-07-29T08:23:20;95008.56;;;36.88;30.81
20077;BME280;12348;42.710;23.378;2023-07-29T08:25:52;95008.97;;;37.27;30.07
20077;BME280;12348;42.710;23.378;2023-07-29T08:28:19;95005.50;;;35.49;31.71
20077;BME280;12348;42.710;23.378;2023-07-29T08:30:46;95004.06;;;36.10;31.06
20077;BME280;12348;42.710;23.378;2023-07-29T08:33:15;94991.41;;;36.68;30.83
20077;BME280;12348;42.710;23.378;2023-07-29T08:35:43;94999.00;;;37.91;29.64
20077;BME280;12348;42.710;23.378;2023-07-29T08:38:10;94999.28;;;37.74;29.44
20077;BME280;12348;42.710;23.378;2023-07-29T08:40:42;94997.16;;;38.63;28.81
20077;BME280;12348;42.710;23.378;2023-07-29T08:43:12;94990.53;;;39.47;27.25
20077;BME280;12348;42.710;23.378;2023-07-29T08:45:41;94997.56;;;40.70;25.96
20077;BME280;12348;42.710;23.378;2023-07-29T08:48:11;94983.72;;;41.75;24.98
20077;BME280;12348;42.710;23.378;2023-07-29T08:50:41;94986.75;;;41.25;25.17
20077;BME280;12348;42.710;23.378;2023-07-29T08:53:09;94990.84;;;37.83;27.93
20077;BME280;12348;42.710;23.378;2023-07-29T08:55:36;94974.78;;;37.20;28.61
20077;BME280;12348;42.710;23.378;2023-07-29T08:58:03;94978.53;;;39.77;26.08
20077;BME280;12348;42.710;23.378;2023-07-29T09:00:31;94977.75;;;39.91;25.60
20077;BME280;12348;42.710;23.378;2023-07-29T09:02:58;94978.53;;;40.86;24.53
20077;BME280;12348;42.710;23.378;2023-07-29T09:05:33;94977.25;;;38.33;26.66
20077;BME280;12348;42.710;23.378;2023-07-29T09:08:02;94973.50;;;39.42;25.54
20077;BME280;12348;42.710;23.378;2023-07-29T09:10:29;94959.38;;;40.75;24.07
20077;BME280;12348;42.710;23.378;2023-07-29T09:12:57;94966.97;;;40.34;24.13
20077;BME280;12348;42.710;23.378;2023-07-29T09:15:27;94959.34;;;37.52;26.61
20077;BME280;12348;42.710;23.378;2023-07-29T09:17:56;94964.16;;;36.96;26.49
20077;BME280;12348;42.710;23.378;2023-07-29T09:20:24;94962.22;;;36.65;27.38
20077;BME280;12348;42.710;23.378;2023-07-29T09:22:53;94955.59;;;36.01;28.73
20077;BME280;12348;42.710;23.378;2023-07-29T09:25:26;94957.72;;;35.97;29.15
20077;BME280;12348;42.710;23.378;2023-07-29T09:27:58;94958.66;;;36.93;27.64
20077;BME280;12348;42.710;23.378;2023-07-29T09:30:25;94953.66;;;36.60;28.20
20077;BME280;12348;42.710;23.378;2023-07-29T09:32:54;94947.81;;;36.05;29.13
20077;BME280;12348;42.710;23.378;2023-07-29T09:35:21;94939.06;;;37.20;27.98
20077;BME280;12348;42.710;23.378;2023-07-29T09:37:48;94946.47;;;38.30;27.18
20077;BME280;12348;42.710;23.378;2023-07-29T09:40:15;94942.34;;;39.21;25.93
20077;BME280;12348;42.710;23.378;2023-07-29T09:42:49;94947.09;;;39.54;25.00
20077;BME280;12348;42.710;23.378;2023-07-29T09:45:23;94940.75;;;39.30;24.84
20077;BME280;12348;42.710;23.378;2023-07-29T09:47:51;94938.38;;;39.82;24.16
20077;BME280;12348;42.710;23.378;2023-07-29T09:50:18;94929.84;;;38.08;26.27
20077;BME280;12348;42.710;23.378;2023-07-29T09:52:45;94927.72;;;36.47;27.71
20077;BME280;12348;42.710;23.378;2023-07-29T09:55:17;94927.16;;;37.53;26.97
20077;BME280;12348;42.710;23.378;2023-07-29T09:57:44;94929.38;;;37.40;26.59
20077;BME280;12348;42.710;23.378;2023-07-29T10:00:13;94926.84;;;38.78;25.42
20077;BME280;12348;42.710;23.378;2023-07-29T10:02:42;94919.63;;;38.86;25.98
20077;BME280;12348;42.710;23.378;2023-07-29T10:05:09;94920.91;;;38.52;26.11
20077;BME280;12348;42.710;23.378;2023-07-29T10:07:37;94916.47;;;37.84;25.83
20077;BME280;12348;42.710;23.378;2023-07-29T10:10:05;94917.66;;;39.16;25.02
20077;BME280;12348;42.710;23.378;2023-07-29T10:12:33;94925.59;;;39.57;24.38
20077;BME280;12348;42.710;23.378;2023-07-29T10:15:02;94919.13;;;39.80;23.33
20077;BME280;12348;42.710;23.378;2023-07-29T10:17:34;94918.72;;;39.72;23.03
20077;BME280;12348;42.710;23.378;2023-07-29T10:20:01;94920.00;;;39.71;23.16
20077;BME280;12348;42.710;23.378;2023-07-29T10:22:34;94912.41;;;38.28;24.94
20077;BME280;12348;42.710;23.378;2023-07-29T10:25:04;94909.34;;;38.74;23.67
20077;BME280;12348;42.710;23.378;2023-07-29T10:27:37;94902.66;;;39.64;22.24
20077;BME280;12348;42.710;23.378;2023-07-29T10:30:09;94897.84;;;39.11;22.62
20077;BME280;12348;42.710;23.378;2023-07-29T10:32:38;94890.38;;;36.96;25.42
20077;BME280;12348;42.710;23.378;2023-07-29T10:35:08;94887.88;;;37.86;24.47
20077;BME280;12348;42.710;23.378;2023-07-29T10:37:36;94884.41;;;36.66;24.80
20077;BME280;12348;42.710;23.378;2023-07-29T10:40:06;94880.97;;;35.19;27.25
20077;BME280;12348;42.710;23.378;2023-07-29T10:42:35;94871.31;;;36.54;27.17
20077;BME280;12348;42.710;23.378;2023-07-29T10:45:17;94869.75;;;37.35;26.66
20077;BME280;12348;42.710;23.378;2023-07-29T10:47:46;94868.88;;;38.14;25.75
20077;BME280;12348;42.710;23.378;2023-07-29T10:50:18;94863.53;;;37.22;27.28
20077;BME280;12348;42.710;23.378;2023-07-29T10:52:49;94852.56;;;37.52;26.07
20077;BME280;12348;42.710;23.378;2023-07-29T10:55:28;94862.09;;;37.36;26.72
20077;BME280;12348;42.710;23.378;2023-07-29T10:58:14;94868.84;;;36.06;26.83
20077;BME280;12348;42.710;23.378;2023-07-29T11:00:42;94855.31;;;36.14;26.75
20077;BME280;12348;42.710;23.378;2023-07-29T11:03:13;94853.16;;;36.27;27.00
20077;BME280;12348;42.710;23.378;2023-07-29T11:05:43;94847.56;;;36.27;26.89
20077;BME280;12348;42.710;23.378;2023-07-29T11:08:18;94847.72;;;35.83;26.72
20077;BME280;12348;42.710;23.378;2023-07-29T11:10:57;94847.84;;;36.20;26.42
20077;BME280;12348;42.710;23.378;2023-07-29T11:13:26;94836.00;;;36.25;27.31
20077;BME280;12348;42.710;23.378;2023-07-29T11:15:54;94838.69;;;35.88;27.66
20077;BME280;12348;42.710;23.378;2023-07-29T11:18:26;94833.31;;;35.63;28.34
20077;BME280;12348;42.710;23.378;2023-07-29T11:20:54;94842.59;;;35.91;27.97
20077;BME280;12348;42.710;23.378;2023-07-29T11:23:27;94834.75;;;36.08;27.35
20077;BME280;12348;42.710;23.378;2023-07-29T11:25:54;94839.06;;;35.59;27.65
20077;BME280;12348;42.710;23.378;2023-07-29T11:28:21;94836.31;;;35.46;26.96
20077;BME280;12348;42.710;23.378;2023-07-29T11:30:49;94843.59;;;35.44;27.18
20077;BME280;12348;42.710;23.378;2023-07-29T11:33:17;94839.78;;;35.51;26.65
20077;BME280;12348;42.710;23.378;2023-07-29T11:35:46;94834.69;;;35.58;27.12
20077;BME280;12348;42.710;23.378;2023-07-29T11:38:15;94837.81;;;35.29;26.46
20077;BME280;12348;42.710;23.378;2023-07-29T11:40:42;94834.53;;;35.31;27.27
20077;BME280;12348;42.710;23.378;2023-07-29T11:43:09;94833.50;;;35.15;27.06
20077;BME280;12348;42.710;23.378;2023-07-29T11:45:44;94828.81;;;34.90;27.91
20077;BME280;12348;42.710;23.378;2023-07-29T11:48:11;94823.97;;;34.91;27.48
20077;BME280;12348;42.710;23.378;2023-07-29T11:50:38;94820.91;;;35.11;27.64
20077;BME280;12348;42.710;23.378;2023-07-29T11:53:06;94817.72;;;34.65;26.81
20077;BME280;12348;42.710;23.378;2023-07-29T11:55:33;94823.84;;;34.03;26.82
20077;BME280;12348;42.710;23.378;2023-07-29T11:58:01;94820.03;;;34.10;27.91
20077;BME280;12348;42.710;23.378;2023-07-29T12:00:28;94816.94;;;34.30;27.76
20077;BME280;12348;42.710;23.378;2023-07-29T12:02:55;94817.78;;;33.79;27.64
20077;BME280;12348;42.710;23.378;2023-07-29T12:05:23;94811.00;;;34.28;28.27
20077;BME280;12348;42.710;23.378;2023-07-29T12:07:51;94810.13;;;34.31;28.97
20077;BME280;12348;42.710;23.378;2023-07-29T12:10:19;94795.47;;;34.26;28.24
20077;BME280;12348;42.710;23.378;2023-07-29T12:12:48;94798.44;;;33.97;28.88
20077;BME280;12348;42.710;23.378;2023-07-29T12:15:23;94802.56;;;33.93;28.81
20077;BME280;12348;42.710;23.378;2023-07-29T12:17:53;94800.25;;;33.78;28.42
20077;BME280;12348;42.710;23.378;2023-07-29T12:20:20;94797.78;;;33.42;29.22
20077;BME280;12348;42.710;23.378;2023-07-29T12:22:51;94795.03;;;33.55;28.90
20077;BME280;12348;42.710;23.378;2023-07-29T12:25:21;94783.69;;;33.08;28.65
20077;BME280;12348;42.710;23.378;2023-07-29T12:27:48;94793.50;;;32.99;29.36
20077;BME280;12348;42.710;23.378;2023-07-29T12:30:15;94794.25;;;33.54;29.28
20077;BME280;12348;42.710;23.378;2023-07-29T12:32:45;94786.59;;;33.42;29.53
20077;BME280;12348;42.710;23.378;2023-07-29T12:35:12;94792.09;;;33.84;28.38
20077;BME280;12348;42.710;23.378;2023-07-29T12:37:39;94784.19;;;33.70;28.69
20077;BME280;12348;42.710;23.378;2023-07-29T12:40:21;94776.81;;;32.83;29.16
20077;BME280;12348;42.710;23.378;2023-07-29T12:42:49;94777.66;;;32.96;29.68
20077;BME280;12348;42.710;23.378;2023-07-29T12:45:16;94774.84;;;32.09;30.03
20077;BME280;12348;42.710;23.378;2023-07-29T12:47:43;94779.81;;;32.01;30.92
20077;BME280;12348;42.710;23.378;2023-07-29T12:50:10;94778.75;;;32.57;29.54
20077;BME280;12348;42.710;23.378;2023-07-29T12:52:37;94775.13;;;32.73;30.23